Time;durP1;ratioP1;P1;durP2;ratioP2;P2;SDS_P1;SDS_P2;PMS_P1;PMS_P2;Temp;Humidity;BMP_temperature;BMP_pressure;BME280_temperature;BME280_humidity;BME280_pressure;Samples;Min_cycle;Max_cycle;Signal;HPM_P1;HPM_P2
2021/06/05 00:00:21;;;;;;;4.22;3.00;;;;;;;21.49;57.57;101313.92;1715108;82;21111;-61
2021/06/05 00:02:49;;;;;;;3.83;2.58;;;;;;;21.53;57.74;101324.63;1720815;83;20963;-61
2021/06/05 00:05:16;;;;;;;4.22;2.55;;;;;;;21.52;57.77;101321.59;1703655;82;20988;-61
2021/06/05 00:07:42;;;;;;;5.50;2.80;;;;;;;21.51;57.79;101324.95;1726459;81;21092;-61
2021/06/05 00:10:09;;;;;;;6.60;2.87;;;;;;;21.50;57.82;101312.23;1729439;81;21705;-62
2021/06/05 00:12:36;;;;;;;6.72;2.90;;;;;;;21.50;57.84;101317.77;1728910;81;21219;-61
2021/06/05 00:15:06;;;;;;;4.55;2.80;;;;;;;21.49;57.88;101317.51;1699539;82;20965;-61
2021/06/05 00:17:32;;;;;;;;;;;;;;;21.48;57.89;101315.86;1702116;82;21120;-62
2021/06/05 00:19:58;;;;;;;4.20;2.90;;;;;;;21.48;57.93;101322.78;1699007;82;20216;-63
2021/06/05 00:22:24;;;;;;;4.92;3.10;;;;;;;21.45;57.97;101316.50;1698670;82;21060;-63
2021/06/05 00:24:51;;;;;;;4.37;2.80;;;;;;;21.45;58.00;101318.44;1700184;82;21066;-63
2021/06/05 00:27:17;;;;;;;4.17;2.95;;;;;;;21.45;58.02;101317.88;1701008;82;21044;-63
2021/06/05 00:29:43;;;;;;;4.25;2.75;;;;;;;21.44;58.01;101313.47;1698106;82;21468;-63
2021/06/05 00:32:09;;;;;;;3.42;2.50;;;;;;;21.43;58.04;101315.41;1698904;82;20945;-63
2021/06/05 00:34:35;;;;;;;3.50;2.75;;;;;;;21.43;58.05;101311.03;1693417;82;21184;-63
2021/06/05 00:37:02;;;;;;;5.55;3.08;;;;;;;21.43;58.05;101304.11;1698213;82;22759;-63
2021/06/05 00:39:28;;;;;;;5.12;2.77;;;;;;;21.41;58.08;101308.56;1700402;83;21031;-63
2021/06/05 00:41:55;;;;;;;4.17;2.58;;;;;;;21.41;58.09;101307.17;1697914;82;21093;-63
2021/06/05 00:44:21;;;;;;;6.17;3.10;;;;;;;21.40;58.12;101306.91;1690094;83;20936;-63
2021/06/05 00:46:47;;;;;;;3.77;2.67;;;;;;;21.41;58.12;101308.56;1701425;84;21535;-63
2021/06/05 00:49:13;;;;;;;5.30;2.83;;;;;;;21.39;58.14;101299.17;1696990;82;21092;-63
2021/06/05 00:51:49;;;;;;;4.90;3.10;;;;;;;21.38;58.16;101296.17;1702319;82;21034;-63
2021/06/05 00:54:16;;;;;;;4.15;2.65;;;;;;;21.38;58.20;101299.50;1698859;82;21604;-63
2021/06/05 00:56:47;;;;;;;4.97;3.05;;;;;;;21.38;58.21;101295.35;1699642;82;21124;-63
2021/06/05 00:59:13;;;;;;;6.00;3.45;;;;;;;21.38;58.23;101295.35;1697785;82;21164;-63
2021/06/05 01:01:40;;;;;;;4.28;2.92;;;;;;;21.36;58.24;101298.98;1699710;82;20910;-63
2021/06/05 01:04:06;;;;;;;4.03;2.72;;;;;;;21.37;58.24;101297.86;1700908;82;21136;-63
2021/06/05 01:06:54;;;;;;;4.83;3.10;;;;;;;21.36;58.23;101291.50;1702491;82;21088;-63
2021/06/05 01:09:46;;;;;;;5.45;2.85;;;;;;;21.36;58.24;101295.65;1695390;82;21657;-63
2021/06/05 01:12:16;;;;;;;5.00;3.02;;;;;;;21.36;58.30;101295.65;1698076;82;21436;-63
2021/06/05 01:14:48;;;;;;;3.35;2.62;;;;;;;21.35;58.30;101292.62;1702039;82;21568;-63
2021/06/05 01:17:35;;;;;;;5.00;3.35;;;;;;;21.34;58.33;101285.44;1726202;81;21000;-61
2021/06/05 01:20:19;;;;;;;8.35;3.22;;;;;;;21.34;58.33;101291.57;1697826;82;21079;-62
2021/06/05 01:23:18;;;;;;;4.90;2.90;;;;;;;21.32;58.32;101289.09;1730986;81;21622;-61
2021/06/05 01:26:25;;;;;;;4.33;2.70;;;;;;;21.30;58.33;101294.11;1721698;81;21132;-62
2021/06/05 01:29:01;;;;;;;4.60;2.70;;;;;;;21.30;58.35;101287.78;1727052;81;21004;-62
2021/06/05 01:31:35;;;;;;;6.10;3.05;;;;;;;21.28;58.37;101290.85;1728618;81;21084;-62
2021/06/05 01:34:01;;;;;;;3.75;3.08;;;;;;;21.28;58.39;101292.80;1729347;81;21091;-63
2021/06/05 01:36:28;;;;;;;5.85;2.90;;;;;;;21.27;58.44;101288.38;1732448;81;21075;-63
2021/06/05 01:39:00;;;;;;;3.87;2.62;;;;;;;21.26;58.44;101286.77;1723582;81;21103;-63
2021/06/05 01:41:27;;;;;;;3.17;2.40;;;;;;;21.27;58.45;101282.84;1728344;81;21069;-63
2021/06/05 01:43:54;;;;;;;3.77;2.42;;;;;;;21.26;58.48;101290.92;1735301;81;21021;-64
2021/06/05 01:46:26;;;;;;;3.72;3.00;;;;;;;21.25;58.49;101283.73;1734463;81;21954;-63
2021/06/05 01:48:53;;;;;;;5.35;2.98;;;;;;;21.26;58.53;101286.77;1725456;81;21089;-63
2021/06/05 01:51:19;;;;;;;4.92;3.05;;;;;;;21.24;58.55;101283.48;1729350;81;21532;-64
2021/06/05 01:53:57;;;;;;;4.12;2.80;;;;;;;21.25;58.56;101285.13;1712489;81;21080;-64
2021/06/05 01:56:32;;;;;;;3.47;2.83;;;;;;;21.25;58.59;101289.27;1725448;81;21080;-64
2021/06/05 01:58:58;;;;;;;3.02;2.27;;;;;;;21.25;58.62;101287.33;1734121;81;21069;-64
2021/06/05 02:01:24;;;;;;;3.10;2.40;;;;;;;21.24;58.63;101279.33;1733039;81;21106;-64
2021/06/05 02:03:50;;;;;;;4.87;2.58;;;;;;;21.24;58.67;101278.77;1730267;81;21160;-64
2021/06/05 02:06:19;;;;;;;3.90;2.62;;;;;;;21.28;58.70;101282.55;1726904;81;21517;-64
2021/06/05 02:08:45;;;;;;;4.25;2.60;;;;;;;21.32;58.79;101277.20;1732767;81;21047;-64
2021/06/05 02:11:14;;;;;;;5.00;2.50;;;;;;;21.35;58.93;101282.11;1733760;81;21575;-64
2021/06/05 02:13:45;;;;;;;4.55;2.42;;;;;;;21.38;59.02;101277.36;1725858;81;21520;-64
2021/06/05 02:16:19;;;;;;;4.12;2.47;;;;;;;21.39;59.13;101281.18;1700335;82;21092;-64
2021/06/05 02:18:50;;;;;;;4.08;2.45;;;;;;;21.41;59.13;101283.09;1696269;82;21555;-64
2021/06/05 02:21:19;;;;;;;5.03;2.85;;;;;;;21.43;59.10;101281.96;1691335;82;21148;-64
2021/06/05 02:24:05;;;;;;;4.00;2.60;;;;;;;21.42;59.05;101282.52;1695510;82;21016;-64
2021/06/05 02:26:34;;;;;;;3.55;2.60;;;;;;;21.43;59.00;101282.19;1691880;82;21041;-64
2021/06/05 02:29:00;;;;;;;3.55;2.55;;;;;;;21.44;58.94;101284.40;1690410;82;21037;-64
2021/06/05 02:31:27;;;;;;;4.75;2.98;;;;;;;21.43;58.88;101279.98;1692170;82;21471;-64
2021/06/05 02:33:53;;;;;;;3.87;2.45;;;;;;;21.42;58.83;101281.14;1681686;84;21140;-64
2021/06/05 02:36:19;;;;;;;3.95;2.60;;;;;;;21.40;58.83;101279.23;1685438;82;21027;-64
2021/06/05 02:38:49;;;;;;;4.03;2.80;;;;;;;21.39;58.78;101277.59;1695119;82;21033;-64
2021/06/05 02:41:18;;;;;;;4.70;2.80;;;;;;;21.39;58.76;101276.20;1699665;82;22614;-64
2021/06/05 02:43:44;;;;;;;4.03;2.87;;;;;;;21.38;58.74;101281.52;1695897;82;21038;-64
2021/06/05 02:46:23;;;;;;;3.52;2.70;;;;;;;21.36;58.70;101280.42;1697240;82;21092;-64
2021/06/05 02:48:56;;;;;;;3.77;2.67;;;;;;;21.36;58.68;101282.38;1698917;82;21486;-64
2021/06/05 02:51:26;;;;;;;4.95;2.80;;;;;;;21.33;58.66;101278.29;1686480;82;21565;-64
2021/06/05 02:53:53;;;;;;;3.67;2.87;;;;;;;21.33;58.68;101283.00;1720412;81;21993;-64
2021/06/05 02:56:20;;;;;;;3.50;2.60;;;;;;;21.33;58.67;101283.00;1717506;81;21226;-64
2021/06/05 02:58:46;;;;;;;3.95;3.12;;;;;;;21.29;58.65;101286.14;1719026;81;21564;-64
2021/06/05 03:01:13;;;;;;;4.78;2.77;;;;;;;21.29;58.67;101283.38;1722775;81;21076;-64
2021/06/05 03:03:39;;;;;;;4.40;3.00;;;;;;;21.28;58.67;101284.49;1720568;82;21036;-64
2021/06/05 03:06:06;;;;;;;7.03;3.33;;;;;;;21.27;58.67;101284.23;1693097;82;21600;-64
2021/06/05 03:08:35;;;;;;;3.85;2.72;;;;;;;21.25;58.66;101283.73;1693153;82;21192;-63
2021/06/05 03:11:04;;;;;;;4.62;2.85;;;;;;;21.25;58.67;101287.89;1692615;82;21121;-63
2021/06/05 03:13:30;;;;;;;4.87;3.22;;;;;;;21.23;58.67;101285.98;1702847;82;21025;-62
2021/06/05 03:15:57;;;;;;;4.25;3.35;;;;;;;21.22;58.67;101281.02;1723352;81;21067;-63
2021/06/05 03:18:24;;;;;;;4.12;2.67;;;;;;;21.22;58.67;101278.24;1721180;81;21506;-63
2021/06/05 03:20:51;;;;;;;6.17;3.15;;;;;;;21.22;58.65;101278.24;1705181;82;21039;-63
2021/06/05 03:23:19;;;;;;;3.72;2.80;;;;;;;21.21;58.65;101279.95;1704307;82;21080;-63
2021/06/05 03:25:46;;;;;;;5.40;2.87;;;;;;;21.21;58.66;101271.66;1701238;82;22764;-64
2021/06/05 03:28:13;;;;;;;7.17;2.92;;;;;;;21.19;58.64;101278.88;1724235;81;21063;-64
2021/06/05 03:30:40;;;;;;;4.87;2.90;;;;;;;21.18;58.64;101281.94;1701080;82;21351;-64
2021/06/05 03:33:06;;;;;;;4.40;2.55;;;;;;;21.18;58.65;101283.32;1704512;82;21079;-64
2021/06/05 03:35:33;;;;;;;4.95;3.20;;;;;;;21.17;58.66;101285.86;1704025;82;21132;-65
2021/06/05 03:38:00;;;;;;;4.87;3.02;;;;;;;21.17;58.67;101288.06;1704828;82;21408;-65
2021/06/05 03:40:29;;;;;;;5.47;3.12;;;;;;;21.18;58.67;101288.30;1701095;82;21048;-65
2021/06/05 03:42:55;;;;;;;5.70;3.20;;;;;;;21.17;58.68;101282.53;1724525;81;22109;-65
2021/06/05 03:45:22;;;;;;;7.58;3.15;;;;;;;21.17;58.68;101281.70;1724955;81;21106;-65
2021/06/05 03:47:48;;;;;;;3.77;3.02;;;;;;;21.17;58.63;101285.30;1721043;81;21470;-64
2021/06/05 03:50:18;;;;;;;4.15;2.65;;;;;;;21.17;58.62;101279.77;1703367;82;21053;-65
2021/06/05 03:52:44;;;;;;;4.22;2.55;;;;;;;21.17;58.59;101278.38;1723332;81;21080;-65
2021/06/05 03:55:11;;;;;;;4.25;2.90;;;;;;;21.17;58.55;101283.91;1725747;81;21770;-65
2021/06/05 03:57:37;;;;;;;4.25;2.80;;;;;;;21.17;58.53;101281.70;1701401;83;21005;-65
2021/06/05 04:00:13;;;;;;;5.22;2.50;;;;;;;21.18;58.53;101279.17;1702177;82;20941;-64
2021/06/05 04:02:39;;;;;;;6.22;3.08;;;;;;;21.17;58.53;101277.00;1724575;81;21015;-65
2021/06/05 04:05:07;;;;;;;4.37;2.60;;;;;;;21.18;58.52;101285.53;1708887;82;21478;-65
2021/06/05 04:07:34;;;;;;;3.85;2.98;;;;;;;21.18;58.47;101279.17;1720066;81;21118;-65
2021/06/05 04:10:00;;;;;;;3.70;2.50;;;;;;;21.18;58.44;101280.55;1725528;81;21514;-65
2021/06/05 04:12:26;;;;;;;3.30;2.33;;;;;;;21.17;58.37;101278.38;1684455;82;21025;-65
2021/06/05 04:14:52;;;;;;;3.92;2.50;;;;;;;21.18;58.32;101281.94;1701562;82;21043;-64
2021/06/05 04:17:18;;;;;;;3.75;2.30;;;;;;;21.17;58.26;101282.53;1703459;82;21752;-65
2021/06/05 04:19:44;;;;;;;4.83;2.83;;;;;;;21.17;58.22;101286.68;1703099;82;21782;-65
2021/06/05 04:22:11;;;;;;;3.70;2.55;;;;;;;21.17;58.18;101288.06;1701730;82;21108;-65
2021/06/05 04:24:37;;;;;;;4.80;2.55;;;;;;;21.18;58.15;101286.09;1706422;82;21013;-65
2021/06/05 04:27:05;;;;;;;3.58;2.90;;;;;;;21.18;58.10;101293.00;1732515;81;21060;-65
2021/06/05 04:29:32;;;;;;;5.30;2.45;;;;;;;21.17;58.03;101286.68;1725850;81;21105;-65
2021/06/05 04:31:58;;;;;;;7.03;2.55;;;;;;;21.18;57.98;101286.09;1727654;81;21162;-65
2021/06/05 04:34:24;;;;;;;2.85;2.00;;;;;;;21.17;57.94;101274.23;1720709;81;21063;-65
2021/06/05 04:36:51;;;;;;;5.58;2.45;;;;;;;21.19;57.90;101277.48;1727311;81;21561;-65
2021/06/05 04:39:18;;;;;;;4.15;2.25;;;;;;;21.19;57.87;101280.81;1726898;81;21044;-64
2021/06/05 04:41:44;;;;;;;3.60;2.15;;;;;;;21.21;57.84;101278.57;1724719;81;21655;-65
2021/06/05 04:44:10;;;;;;;5.45;2.62;;;;;;;21.20;57.80;101272.78;1727795;81;23197;-65
2021/06/05 04:46:37;;;;;;;4.20;2.50;;;;;;;21.20;57.74;101274.16;1722814;81;21046;-64
2021/06/05 04:49:04;;;;;;;3.80;2.70;;;;;;;21.19;57.67;101278.88;1727645;81;21488;-65
2021/06/05 04:51:31;;;;;;;3.45;2.27;;;;;;;21.19;57.62;101276.66;1726319;81;21148;-65
2021/06/05 04:53:57;;;;;;;5.10;2.58;;;;;;;21.19;57.58;101277.48;1703269;81;21000;-65
2021/06/05 04:56:43;;;;;;;3.30;2.58;;;;;;;21.20;57.52;101277.75;1706922;82;21638;-65
2021/06/05 04:59:11;;;;;;;4.33;2.52;;;;;;;21.20;57.47;101271.39;1701794;82;20964;-65
2021/06/05 05:01:37;;;;;;;6.47;2.50;;;;;;;21.20;57.43;101276.92;1730247;81;21616;-65
2021/06/05 05:04:04;;;;;;;4.22;2.45;;;;;;;21.20;57.39;101274.16;1721327;82;21034;-65
2021/06/05 05:06:31;;;;;;;3.98;2.80;;;;;;;21.19;57.33;101279.44;1736392;81;21770;-64
2021/06/05 05:08:57;;;;;;;4.08;2.40;;;;;;;21.18;57.30;101275.84;1728569;81;21330;-64
2021/06/05 05:11:23;;;;;;;5.00;2.58;;;;;;;21.19;57.26;101277.48;1727381;81;21151;-65
2021/06/05 05:13:49;;;;;;;4.08;2.33;;;;;;;21.18;57.20;101278.61;1731428;81;20937;-65
2021/06/05 05:16:16;;;;;;;6.17;2.58;;;;;;;21.17;57.17;101277.00;1733391;81;21640;-65
2021/06/05 05:18:45;;;;;;;3.98;2.40;;;;;;;21.18;57.16;101273.08;1730166;81;21085;-65
2021/06/05 05:21:10;;;;;;;3.40;2.35;;;;;;;21.18;57.12;101269.48;1729787;81;22011;-64
2021/06/05 05:23:36;;;;;;;4.03;2.60;;;;;;;21.17;57.12;101271.46;1732743;81;21028;-65
2021/06/05 05:26:04;;;;;;;3.15;2.17;;;;;;;21.17;57.10;101276.17;1725139;81;21474;-64
2021/06/05 05:28:31;;;;;;;4.75;2.42;;;;;;;21.17;57.10;101277.55;1716464;82;21163;-64
2021/06/05 05:30:58;;;;;;;2.85;2.25;;;;;;;21.17;57.07;101275.61;1715989;82;21119;-65
2021/06/05 05:33:24;;;;;;;4.35;2.25;;;;;;;21.18;57.07;101279.17;1722088;82;21116;-65
2021/06/05 05:35:52;;;;;;;3.27;2.22;;;;;;;21.17;57.07;101272.02;1708850;82;21027;-65
2021/06/05 05:38:18;;;;;;;3.45;2.20;;;;;;;21.16;57.04;101276.73;1729238;81;21190;-64
2021/06/05 05:40:45;;;;;;;3.37;2.02;;;;;;;21.18;57.04;101277.78;1733850;81;21069;-64
2021/06/05 05:43:11;;;;;;;2.87;2.12;;;;;;;21.17;57.03;101278.94;1726535;81;21101;-65
2021/06/05 05:45:37;;;;;;;4.58;2.42;;;;;;;21.17;56.98;101281.70;1731550;81;22034;-65
2021/06/05 05:48:06;;;;;;;3.08;2.22;;;;;;;21.18;56.99;101283.32;1696033;82;21120;-65
2021/06/05 05:50:34;;;;;;;3.17;1.95;;;;;;;21.17;56.98;101282.53;1711815;82;21107;-65
2021/06/05 05:53:00;;;;;;;3.65;2.00;;;;;;;21.17;56.98;101278.38;1728626;81;21052;-65
2021/06/05 05:55:26;;;;;;;3.60;2.05;;;;;;;21.18;56.98;101277.78;1732755;81;21775;-65
2021/06/05 05:57:53;;;;;;;2.67;1.90;;;;;;;21.18;56.96;101281.37;1735611;81;21293;-65
2021/06/05 06:00:28;;;;;;;2.95;2.05;;;;;;;21.18;56.96;101283.32;1728317;81;21073;-65
2021/06/05 06:02:54;;;;;;;2.33;2.00;;;;;;;21.18;56.98;101288.86;1731502;81;21065;-65
2021/06/05 06:05:20;;;;;;;2.30;1.95;;;;;;;21.17;57.00;101283.09;1731246;81;21945;-65
2021/06/05 06:07:46;;;;;;;3.80;2.17;;;;;;;21.19;57.04;101287.73;1726592;81;21071;-65
2021/06/05 06:10:14;;;;;;;3.52;1.87;;;;;;;21.18;57.05;101284.70;1730059;81;21477;-65
2021/06/05 06:12:41;;;;;;;6.37;2.40;;;;;;;21.19;57.01;101283.58;1728430;81;21149;-65
2021/06/05 06:15:13;;;;;;;3.20;2.40;;;;;;;21.20;57.01;101283.84;1725768;81;21121;-65
2021/06/05 06:17:42;;;;;;;4.42;2.10;;;;;;;21.19;57.02;101281.64;1705841;82;21508;-65
2021/06/05 06:20:12;;;;;;;2.30;1.70;;;;;;;21.20;56.98;101278.31;1687409;83;21033;-65
2021/06/05 06:22:39;;;;;;;3.58;1.98;;;;;;;21.20;56.98;101280.52;1714030;82;20928;-65
2021/06/05 06:25:06;;;;;;;3.00;1.72;;;;;;;21.20;56.95;101277.75;1691734;83;21127;-65
2021/06/05 06:27:34;;;;;;;3.17;2.00;;;;;;;21.21;56.96;101275.80;1682457;83;21073;-65
2021/06/05 06:30:00;;;;;;;2.55;1.80;;;;;;;21.22;56.94;101278.80;1686642;83;21773;-65
2021/06/05 06:32:27;;;;;;;2.50;1.82;;;;;;;21.22;56.94;101276.86;1683631;83;21100;-65
2021/06/05 06:34:53;;;;;;;3.12;1.67;;;;;;;21.22;57.00;101278.24;1717258;82;21541;-65
2021/06/05 06:37:19;;;;;;;2.98;1.60;;;;;;;21.23;56.99;101283.22;1706529;82;21097;-65
2021/06/05 06:39:45;;;;;;;2.77;1.60;;;;;;;21.23;57.01;101281.27;1706309;82;21121;-65
2021/06/05 06:42:11;;;;;;;2.52;1.35;;;;;;;21.23;57.03;101277.68;1694400;83;21612;-65
2021/06/05 06:44:37;;;;;;;2.20;1.30;;;;;;;21.23;57.09;101270.20;1686891;83;21080;-65
2021/06/05 06:47:06;;;;;;;1.92;1.40;;;;;;;21.24;57.12;101271.84;1689507;84;21366;-65
2021/06/05 06:49:33;;;;;;;2.00;1.45;;;;;;;21.25;57.11;101275.44;1694256;83;37402;-65
2021/06/05 06:51:59;;;;;;;2.47;1.80;;;;;;;21.25;57.11;101271.28;1680969;83;21061;-64
2021/06/05 06:54:26;;;;;;;3.10;1.57;;;;;;;21.24;57.12;101264.11;1720281;82;21684;-64
2021/06/05 06:56:52;;;;;;;2.80;1.47;;;;;;;21.24;57.13;101263.55;1677192;84;21054;-65
2021/06/05 06:59:18;;;;;;;2.62;1.40;;;;;;;21.24;57.13;101258.02;1675050;84;21171;-64
2021/06/05 07:01:45;;;;;;;8.85;3.37;;;;;;;21.25;57.20;101257.45;1696526;82;21528;-64
2021/06/05 07:04:11;;;;;;;12.95;4.75;;;;;;;21.25;57.29;101260.22;1679111;83;21477;-64
2021/06/05 07:06:37;;;;;;;5.80;2.20;;;;;;;21.25;57.40;101257.45;1685828;83;22002;-64
2021/06/05 07:09:05;;;;;;;6.08;2.65;;;;;;;21.25;57.49;101255.50;1677329;83;21061;-65
2021/06/05 07:11:34;;;;;;;3.33;1.85;;;;;;;21.25;57.60;101253.30;1678093;83;21747;-65
2021/06/05 07:14:01;;;;;;;5.60;2.55;;;;;;;21.25;57.66;101247.77;1671249;83;21119;-65
2021/06/05 07:16:28;;;;;;;2.72;1.80;;;;;;;21.26;57.70;101248.02;1690220;83;21064;-65
2021/06/05 07:18:54;;;;;;;5.28;2.35;;;;;;;21.26;57.74;101236.95;1695784;83;21022;-65
2021/06/05 07:21:20;;;;;;;11.70;4.80;;;;;;;21.27;57.76;101238.57;1705887;82;21173;-65
2021/06/05 07:23:46;;;;;;;7.10;3.27;;;;;;;21.27;57.77;101241.34;1679484;84;21289;-65
2021/06/05 07:26:17;;;;;;;3.50;1.67;;;;;;;21.26;57.80;101236.95;1718586;81;21493;-65
2021/06/05 07:28:46;;;;;;;2.87;1.72;;;;;;;21.27;57.81;101235.24;1704859;82;21095;-64
2021/06/05 07:31:15;;;;;;;3.02;1.50;;;;;;;21.27;57.82;101236.63;1715926;81;21089;-65
2021/06/05 07:33:43;;;;;;;2.70;1.90;;;;;;;21.28;57.82;101240.22;1704244;82;21091;-64
2021/06/05 07:36:13;;;;;;;4.70;1.85;;;;;;;21.27;57.83;101244.92;1704112;82;21128;-65
2021/06/05 07:38:39;;;;;;;3.95;1.98;;;;;;;21.28;57.84;101240.22;1706741;82;21554;-65
2021/06/05 07:41:05;;;;;;;3.47;1.72;;;;;;;21.28;57.85;101239.66;1706208;82;21019;-65
2021/06/05 07:43:33;;;;;;;8.60;3.20;;;;;;;21.28;57.84;101231.91;1704407;82;21070;-64
2021/06/05 07:45:59;;;;;;;5.35;1.95;;;;;;;21.30;57.87;101229.66;1704340;82;21545;-64
2021/06/05 07:48:26;;;;;;;5.17;2.20;;;;;;;21.28;57.88;101220.28;1700800;82;21205;-64
2021/06/05 07:50:52;;;;;;;2.55;1.57;;;;;;;21.31;57.92;101227.95;1704537;82;21697;-64
2021/06/05 07:53:19;;;;;;;4.20;1.70;;;;;;;21.32;57.90;101224.63;1702649;82;21027;-65
2021/06/05 07:55:45;;;;;;;2.00;1.47;;;;;;;21.33;57.92;101222.11;1703969;82;21062;-64
2021/06/05 07:58:11;;;;;;;2.52;1.57;;;;;;;21.33;57.92;101224.88;1705740;82;21110;-65
2021/06/05 08:00:38;;;;;;;2.22;1.55;;;;;;;21.33;57.93;101217.96;1709109;81;21490;-64
2021/06/05 08:03:05;;;;;;;2.35;1.70;;;;;;;21.34;57.96;101215.45;1705502;81;21081;-64
2021/06/05 08:05:31;;;;;;;1.92;1.47;;;;;;;21.35;57.96;101214.30;1704897;82;21641;-65
2021/06/05 08:07:57;;;;;;;4.65;2.10;;;;;;;21.35;57.96;101207.38;1706470;82;21090;-64
2021/06/05 08:10:24;;;;;;;6.62;2.58;;;;;;;21.36;57.98;101210.41;1674953;84;21142;-65
2021/06/05 08:12:52;;;;;;;7.28;2.42;;;;;;;21.34;57.97;101210.71;1723411;81;21105;-64
2021/06/05 08:15:25;;;;;;;4.67;1.70;;;;;;;21.35;57.96;101213.73;1704782;82;21062;-64
2021/06/05 08:18:12;;;;;;;3.42;1.85;;;;;;;21.35;57.97;101213.73;1701324;82;21349;-64
2021/06/05 08:20:45;;;;;;;10.72;3.05;;;;;;;21.36;57.97;101212.61;1777164;79;21201;-64
2021/06/05 08:23:12;;;;;;;7.50;2.02;;;;;;;21.37;57.94;101209.28;1776505;79;21053;-63
2021/06/05 08:25:38;;;;;;;4.92;2.30;;;;;;;21.37;57.93;101205.95;1805405;78;21090;-64
2021/06/05 08:28:07;;;;;;;2.15;1.72;;;;;;;21.37;57.89;101198.21;1804784;78;21086;-64
2021/06/05 08:30:46;;;;;;;2.12;1.67;;;;;;;21.37;57.86;101194.88;1779361;79;21553;-64
2021/06/05 08:33:12;;;;;;;1.72;1.50;;;;;;;21.39;57.81;101199.52;1815747;78;21096;-64
2021/06/05 08:35:39;;;;;;;2.02;1.50;;;;;;;21.41;57.78;101196.45;1793365;78;21612;-59
2021/06/05 08:38:06;;;;;;;18.62;8.40;;;;;;;21.38;57.72;101186.84;1752687;79;21700;-58
2021/06/05 08:41:04;;;;;;;219.18;92.22;;;;;;;21.43;57.67;101190.61;1811697;78;21079;-59
2021/06/05 08:43:37;;;;;;;353.83;149.50;;;;;;;21.44;57.66;101188.89;1782465;78;21059;-58
2021/06/05 08:46:07;;;;;;;145.32;50.33;;;;;;;21.45;57.66;101182.23;1797060;78;21459;-58
2021/06/05 08:48:33;;;;;;;432.35;156.90;;;;;;;21.45;57.67;101179.47;1777550;79;21533;-59
2021/06/05 08:51:11;;;;;;;837.15;382.95;;;;;;;21.47;57.69;101175.02;1777095;79;21204;-57
2021/06/05 08:53:37;;;;;;;706.02;285.80;;;;;;;21.50;57.72;101179.91;1809894;78;21126;-57
2021/06/05 08:56:06;;;;;;;672.25;270.73;;;;;;;21.52;57.75;101179.02;1779102;78;21031;-61
2021/06/05 08:58:40;;;;;;;616.10;243.73;;;;;;;21.55;57.78;101186.15;1769449;79;21087;-62
2021/06/05 09:01:35;;;;;;;331.77;90.38;;;;;;;21.57;57.80;101189.41;1805719;78;21492;-61
2021/06/05 09:04:07;;;;;;;124.47;35.13;;;;;;;21.60;57.83;101182.44;1806949;78;21492;-61
2021/06/05 09:07:00;;;;;;;57.08;16.48;;;;;;;21.61;57.83;101182.10;1810022;78;21019;-61
2021/06/05 09:09:31;;;;;;;28.00;9.00;;;;;;;21.63;57.83;101179.03;1816730;78;21025;-61
2021/06/05 09:11:58;;;;;;;21.15;7.67;;;;;;;21.64;57.81;101177.91;1773946;79;21073;-62
2021/06/05 09:14:24;;;;;;;9.03;3.25;;;;;;;21.65;57.81;101185.05;1810473;78;21499;-62
2021/06/05 09:16:51;;;;;;;6.60;2.85;;;;;;;21.66;57.82;101183.92;1783482;78;23296;-62
2021/06/05 09:19:31;;;;;;;4.15;2.50;;;;;;;21.66;57.79;101180.59;1803633;78;21102;-62
2021/06/05 09:22:09;;;;;;;10.00;3.90;;;;;;;21.68;57.79;101181.67;1788039;78;21051;-62
2021/06/05 09:24:45;;;;;;;6.20;3.08;;;;;;;21.68;57.77;101181.67;1788337;78;21523;-62
2021/06/05 09:27:19;;;;;;;7.87;4.35;;;;;;;21.68;57.75;101168.66;1776161;79;21048;-61
2021/06/05 09:30:07;;;;;;;6.17;3.72;;;;;;;21.69;57.70;101177.19;1781381;79;21578;-62
2021/06/05 09:32:56;;;;;;;7.33;3.75;;;;;;;21.70;57.66;101160.83;1768447;79;21105;-62
2021/06/05 09:35:29;;;;;;;4.37;2.85;;;;;;;21.71;57.61;101169.39;1781808;79;21468;-61
2021/06/05 09:38:33;;;;;;;3.62;3.17;;;;;;;21.73;57.60;101166.29;1766638;79;21018;-61
2021/06/05 09:41:11;;;;;;;5.85;3.60;;;;;;;21.72;57.55;101166.88;1768015;79;21109;-62
2021/06/05 09:43:37;;;;;;;4.15;3.15;;;;;;;21.73;57.51;101169.88;1773545;79;21957;-62
2021/06/05 09:46:15;;;;;;;4.17;3.00;;;;;;;21.73;57.48;101162.95;1778274;79;21124;-62
2021/06/05 09:48:44;;;;;;;4.90;2.77;;;;;;;21.74;57.44;101162.39;1778446;79;21050;-62
2021/06/05 09:51:36;;;;;;;22.67;6.67;;;;;;;21.75;57.42;101162.65;1781473;79;21139;-62
2021/06/05 09:54:13;;;;;;;12.10;5.60;;;;;;;21.78;57.37;101162.01;1778708;79;21053;-62
2021/06/05 09:56:43;;;;;;;9.33;3.37;;;;;;;21.79;57.30;101153.95;1782233;79;21069;-61
2021/06/05 09:59:21;;;;;;;6.85;3.15;;;;;;;21.81;57.28;101151.70;1782746;79;21472;-62
2021/06/05 10:02:21;;;;;;;8.68;4.33;;;;;;;21.83;57.23;101149.41;1781017;78;21045;-63
2021/06/05 10:05:06;;;;;;;5.33;3.25;;;;;;;21.84;57.21;101150.50;1781450;79;21049;-63
2021/06/05 10:07:32;;;;;;;4.37;3.20;;;;;;;21.84;57.17;101144.95;1779523;79;20975;-62
2021/06/05 10:10:12;;;;;;;4.08;2.83;;;;;;;21.86;57.18;101147.39;1782111;79;20951;-62
2021/06/05 10:12:40;;;;;;;3.27;2.77;;;;;;;21.89;57.19;101141.23;1765022;79;28301;-62
2021/06/05 10:15:14;;;;;;;4.15;2.55;;;;;;;21.93;57.22;101140.88;1779605;79;21629;-63
2021/06/05 10:17:55;;;;;;;5.45;3.12;;;;;;;21.99;57.21;101140.14;1781559;79;21067;-62
2021/06/05 10:21:00;;;;;;;3.55;2.70;;;;;;;22.05;57.21;101133.34;1793083;78;21122;-62
2021/06/05 10:23:37;;;;;;;4.83;2.65;;;;;;;22.08;57.21;101132.70;1798589;78;21348;-62
2021/06/05 10:26:28;;;;;;;3.60;2.40;;;;;;;22.10;57.20;101129.88;1780645;79;21496;-63
2021/06/05 10:29:02;;;;;;;5.33;2.80;;;;;;;22.13;57.23;101129.22;1816676;78;21094;-62
2021/06/05 10:31:28;;;;;;;3.90;2.10;;;;;;;22.16;57.25;101130.52;1788529;78;21101;-62
2021/06/05 10:34:03;;;;;;;4.47;2.30;;;;;;;22.16;57.25;101128.58;1818789;78;21067;-62
2021/06/05 10:36:42;;;;;;;2.72;2.22;;;;;;;22.18;57.29;101125.49;1817052;78;21597;-62
2021/06/05 10:39:13;;;;;;;3.10;2.30;;;;;;;22.19;57.31;101122.38;1791899;78;21314;-63
2021/06/05 10:41:46;;;;;;;2.35;1.98;;;;;;;22.20;57.32;101112.11;1812835;78;21014;-62
2021/06/05 10:44:12;;;;;;;3.25;2.37;;;;;;;22.19;57.37;101116.84;1813538;78;20991;-62
2021/06/05 10:46:53;;;;;;;4.30;2.42;;;;;;;22.19;57.39;101123.77;1777996;79;20990;-62
2021/06/05 10:49:25;;;;;;;2.80;2.30;;;;;;;22.20;57.41;101110.73;1795935;79;21525;-62
2021/06/05 10:52:13;;;;;;;5.35;2.50;;;;;;;22.19;57.44;101109.12;1801996;78;20935;-62
2021/06/05 10:54:44;;;;;;;7.33;2.25;;;;;;;22.19;57.46;101111.89;1796762;78;21106;-62
2021/06/05 10:57:33;;;;;;;2.98;2.02;;;;;;;22.19;57.48;101109.12;1775559;79;21081;-62
2021/06/05 11:00:10;;;;;;;3.67;2.10;;;;;;;22.18;57.52;101106.91;1773347;79;21037;-62
2021/06/05 11:02:46;;;;;;;3.00;2.10;;;;;;;22.18;57.53;101110.25;1812809;78;22010;-63
2021/06/05 11:05:29;;;;;;;4.20;2.40;;;;;;;22.17;57.53;101101.68;1811653;77;22137;-63
2021/06/05 11:08:22;;;;;;;3.20;2.20;;;;;;;22.18;57.55;101113.02;1816000;78;21048;-63
2021/06/05 11:11:04;;;;;;;5.97;2.47;;;;;;;22.19;57.54;101111.89;1779498;79;21198;-63
2021/06/05 11:13:42;;;;;;;3.58;2.10;;;;;;;22.19;57.52;101104.37;1811235;78;21075;-63
2021/06/05 11:16:11;;;;;;;3.25;2.35;;;;;;;22.19;57.48;101102.19;1812654;78;21517;-63
2021/06/05 11:18:42;;;;;;;4.22;2.17;;;;;;;22.21;57.50;101108.22;1810698;78;20977;-63
2021/06/05 11:21:26;;;;;;;3.70;2.42;;;;;;;22.22;57.46;101105.70;1813508;77;21060;-63
2021/06/05 11:24:01;;;;;;;3.65;2.20;;;;;;;22.23;57.45;101108.72;1817557;78;21224;-62
2021/06/05 11:26:47;;;;;;;2.10;1.75;;;;;;;22.23;57.43;101103.18;1810351;78;21545;-62
2021/06/05 11:29:28;;;;;;;3.20;2.10;;;;;;;22.24;57.42;101096.48;1807136;78;21935;-62
2021/06/05 11:32:35;;;;;;;3.50;2.37;;;;;;;22.25;57.38;101095.34;1811767;78;27097;-62
2021/06/05 11:35:07;;;;;;;3.00;2.17;;;;;;;22.26;57.34;101093.65;1807560;78;21062;-62
2021/06/05 11:37:39;;;;;;;4.55;2.10;;;;;;;22.29;57.33;101093.00;1814187;77;21068;-62
2021/06/05 11:40:09;;;;;;;2.58;1.72;;;;;;;22.30;57.28;101095.20;1811307;78;21548;-62